Portada
METAR-TAF:

METAR-TAF

Aeroports :

Marshall County Airport

Lacon, Illinois, Estats Units d'Amèrica

latitud: 41-01-09N, longitud: 089-23-11W, altitud: 173 m

Observació

L'informe es va fer fa 13 minuts, a les 14:55 UTC
Vent 5 kt del Oest/Nord-Oest
Temperatura 2°C
Humitat 93%
Pressió 1011 hPa
Visibilitat: 16.1 km
Cel cobert a una alçada de 2100 ft

METAR: KC75 181455Z AUTO 29005KT 10SM OVC021 02/01 A2985 RMK AO2 T00220007

Hora: 09:08 (15:08 UTC)


TAF: manca

Observacions i pronòstics meteorològics de més de 4000 aeroports (METAR i TAF).

Les estacions disponibles són els punts grocs i vermells al mapa.

Posi el ratolí al punt desitjat per veure el nom de l'estació.

Feu clic per veure les observacions i els pronòstics meteorològics.

Per canviar el mapa: feu clic els botons verds amb una creu de color negre per apropar; al botó verd amb un guió per allunyar la imatge; o en les fletxes verdes per a mapes adjacents.


METAR-TAF: